createdAt,value
2023-03-04T00:01:07.489Z,101304.19
2023-03-04T00:03:37.416Z,101299.96
2023-03-04T00:06:06.124Z,101298.79
2023-03-04T00:08:34.908Z,101299.33
2023-03-04T00:11:03.087Z,101296.74
2023-03-04T00:13:31.372Z,101294.44
2023-03-04T00:15:59.740Z,101291.08
2023-03-04T00:18:27.926Z,101291.30
2023-03-04T00:20:56.211Z,101285.92
2023-03-04T00:23:24.692Z,101282.08
2023-03-04T00:25:53.076Z,101282.47
2023-03-04T00:28:21.464Z,101279.42
2023-03-04T00:30:49.848Z,101277.14
2023-03-04T00:33:18.234Z,101273.57
2023-03-04T00:35:46.557Z,101270.25
2023-03-04T00:38:14.895Z,101269.98
2023-03-04T00:40:44.550Z,101269.69
2023-03-04T00:43:13.306Z,101266.56
2023-03-04T00:45:42.129Z,101259.75
2023-03-04T00:48:10.686Z,101258.23
2023-03-04T00:50:39.167Z,101257.33
2023-03-04T00:53:07.558Z,101252.17
2023-03-04T00:55:36.298Z,101252.80
2023-03-04T00:58:04.841Z,101251.73
2023-03-04T01:00:33.118Z,101246.52
2023-03-04T01:03:01.502Z,101242.26
2023-03-04T01:05:29.886Z,101240.27
2023-03-04T01:07:58.163Z,101238.61
2023-03-04T01:10:26.444Z,101236.78
2023-03-04T01:12:54.629Z,101236.20
2023-03-04T01:15:23.425Z,101237.04
2023-03-04T01:17:51.844Z,101228.98
2023-03-04T01:20:20.289Z,101229.71
2023-03-04T01:22:48.573Z,101221.96
2023-03-04T01:25:16.956Z,101221.92
2023-03-04T01:27:45.237Z,101220.61
2023-03-04T01:30:13.640Z,101220.61
2023-03-04T01:32:42.028Z,101217.35
2023-03-04T01:35:10.801Z,101218.08
2023-03-04T01:37:39.618Z,101213.67
2023-03-04T01:40:09.879Z,101206.48
2023-03-04T01:42:40.157Z,101207.62
2023-03-04T01:45:16.730Z,101203.94
2023-03-04T01:47:50.595Z,101200.56
2023-03-04T01:50:19.020Z,101196.91
2023-03-04T01:52:47.511Z,101196.38
2023-03-04T01:55:19.268Z,101195.60
2023-03-04T01:57:50.123Z,101194.00
2023-03-04T02:00:26.904Z,101191.64
2023-03-04T02:03:08.032Z,101193.91
2023-03-04T02:05:38.696Z,101189.05
2023-03-04T02:08:08.222Z,101187.59
2023-03-04T02:10:39.367Z,101187.94
2023-03-04T02:13:07.633Z,101184.58
2023-03-04T02:15:36.127Z,101181.35
2023-03-04T02:18:23.674Z,101177.60
2023-03-04T02:21:19.973Z,101173.61
2023-03-04T02:24:15.573Z,101173.27
2023-03-04T02:26:47.018Z,101172.77
2023-03-04T02:29:17.202Z,101172.30
2023-03-04T02:31:49.009Z,101169.16
2023-03-04T02:34:30.107Z,101163.06
2023-03-04T02:36:59.127Z,101163.98
2023-03-04T02:39:33.303Z,101162.37
2023-03-04T02:42:03.333Z,101161.12
2023-03-04T02:44:37.495Z,101159.09
2023-03-04T02:47:09.273Z,101157.11
2023-03-04T02:49:41.322Z,101154.56
2023-03-04T02:52:14.671Z,101149.05
2023-03-04T02:54:43.112Z,101142.08
2023-03-04T02:57:13.984Z,101133.51
2023-03-04T02:59:43.924Z,101133.02
2023-03-04T03:02:16.093Z,101131.20
2023-03-04T03:04:44.396Z,101120.09
2023-03-04T03:07:14.804Z,101116.14
2023-03-04T03:09:43.302Z,101116.39
2023-03-04T03:12:11.675Z,101109.52
2023-03-04T03:14:40.161Z,101107.48
2023-03-04T03:17:10.567Z,101100.94
2023-03-04T03:19:38.775Z,101098.86
2023-03-04T03:22:08.286Z,101098.51
2023-03-04T03:24:37.192Z,101092.48
2023-03-04T03:27:05.478Z,101094.58
2023-03-04T03:29:34.350Z,101090.51
2023-03-04T03:32:02.548Z,101087.83
2023-03-04T03:34:30.815Z,101083.44
2023-03-04T03:36:59.211Z,101079.66
2023-03-04T03:39:27.590Z,101071.66
2023-03-04T03:41:56.377Z,101073.09
2023-03-04T03:44:24.759Z,101068.79
2023-03-04T03:46:53.252Z,101067.52
2023-03-04T03:49:21.938Z,101068.86
2023-03-04T03:51:50.530Z,101070.79
2023-03-04T03:54:18.824Z,101072.17
2023-03-04T03:56:47.398Z,101073.20
2023-03-04T03:59:15.684Z,101074.57
2023-03-04T04:01:44.094Z,101078.75
2023-03-04T04:04:12.350Z,101076.33
2023-03-04T04:06:40.639Z,101075.23
2023-03-04T04:09:08.809Z,101072.45
2023-03-04T04:11:37.299Z,101067.14
2023-03-04T04:14:05.581Z,101066.28
2023-03-04T04:16:33.847Z,101065.48
2023-03-04T04:19:02.257Z,101065.20
2023-03-04T04:21:30.558Z,101062.41
2023-03-04T04:23:58.809Z,101061.17
2023-03-04T04:26:29.447Z,101061.62
2023-03-04T04:28:57.938Z,101060.72
2023-03-04T04:31:26.124Z,101051.38
2023-03-04T04:33:54.498Z,101059.20
2023-03-04T04:36:22.880Z,101060.61
2023-03-04T04:39:05.286Z,101058.34
2023-03-04T04:41:43.185Z,101058.63
2023-03-04T04:44:12.965Z,101052.63
2023-03-04T04:46:42.162Z,101054.08
2023-03-04T04:49:11.435Z,101056.54
2023-03-04T04:51:39.915Z,101054.75
2023-03-04T04:54:08.400Z,101056.65
2023-03-04T04:56:37.072Z,101057.88
2023-03-04T04:59:08.846Z,101061.20
2023-03-04T05:01:37.577Z,101062.86
2023-03-04T05:04:06.441Z,101064.34
2023-03-04T05:06:34.811Z,101061.40
2023-03-04T05:09:04.635Z,101067.67
2023-03-04T05:11:33.211Z,101068.19
2023-03-04T05:14:01.411Z,101070.53
2023-03-04T05:16:30.187Z,101069.96
2023-03-04T05:18:58.581Z,101072.98
2023-03-04T05:21:26.858Z,101070.39
2023-03-04T05:23:55.344Z,101067.95
2023-03-04T05:26:23.522Z,101064.40
2023-03-04T05:28:51.912Z,101065.75
2023-03-04T05:31:20.440Z,101067.08
2023-03-04T05:33:48.682Z,101069.40
2023-03-04T05:36:17.176Z,101070.54
2023-03-04T05:38:45.757Z,101075.92
2023-03-04T05:41:14.042Z,101069.95
2023-03-04T05:43:43.064Z,101071.14
2023-03-04T05:46:17.361Z,101068.30
2023-03-04T05:48:45.846Z,101068.45
2023-03-04T05:51:14.225Z,101065.85
2023-03-04T05:53:42.508Z,101064.25
2023-03-04T05:56:16.316Z,101066.05
2023-03-04T05:58:45.216Z,101060.83
2023-03-04T06:01:14.713Z,101057.59
2023-03-04T06:03:43.787Z,101053.71
2023-03-04T06:06:12.112Z,101050.22
2023-03-04T06:08:40.383Z,101048.34
2023-03-04T06:11:09.060Z,101049.83
2023-03-04T06:13:38.482Z,101041.77
2023-03-04T06:16:07.518Z,101039.50
2023-03-04T06:18:35.988Z,101036.20
2023-03-04T06:21:04.796Z,101033.40
2023-03-04T06:23:33.148Z,101032.77
2023-03-04T06:26:02.016Z,101028.53
2023-03-04T06:28:30.594Z,101024.90
2023-03-04T06:30:59.019Z,101024.21
2023-03-04T06:33:27.519Z,101025.73
2023-03-04T06:35:57.453Z,101024.30
2023-03-04T06:38:26.997Z,101025.42
2023-03-04T06:40:57.461Z,101022.30
2023-03-04T06:43:26.211Z,101018.65
2023-03-04T06:45:54.855Z,101018.64
2023-03-04T06:48:23.645Z,101016.45
2023-03-04T06:50:52.047Z,101012.67
2023-03-04T06:53:20.308Z,101009.25
2023-03-04T06:55:49.823Z,101011.05
2023-03-04T06:58:18.409Z,101008.40
2023-03-04T07:00:46.941Z,101009.23
2023-03-04T07:03:15.379Z,101002.30
2023-03-04T07:05:44.172Z,101004.84
2023-03-04T07:08:12.864Z,101003.16
2023-03-04T07:10:41.572Z,101004.84
2023-03-04T07:13:09.842Z,101005.23
2023-03-04T07:15:38.436Z,100995.02
2023-03-04T07:18:06.718Z,100993.08
2023-03-04T07:20:35.202Z,100989.31
2023-03-04T07:23:03.487Z,100985.21
2023-03-04T07:25:32.179Z,100980.88
2023-03-04T07:28:10.397Z,100976.23
2023-03-04T07:30:38.868Z,100969.79
2023-03-04T07:33:07.459Z,100969.73
2023-03-04T07:35:56.037Z,100967.30
2023-03-04T07:38:36.763Z,100963.98
2023-03-04T07:41:05.772Z,100958.48
2023-03-04T07:43:34.089Z,100957.20
2023-03-04T07:46:03.130Z,100954.20
2023-03-04T07:48:32.050Z,100950.30
2023-03-04T07:51:21.515Z,100944.30
2023-03-04T07:53:52.257Z,100942.16
2023-03-04T07:56:24.139Z,100940.70
2023-03-04T07:58:56.488Z,100938.39
2023-03-04T08:01:34.795Z,100936.47
2023-03-04T08:04:05.557Z,100932.09
2023-03-04T08:06:34.701Z,100926.38
2023-03-04T08:09:08.241Z,100927.12
2023-03-04T08:11:38.288Z,100927.42
2023-03-04T08:14:07.167Z,100925.85
2023-03-04T08:16:35.578Z,100914.12
2023-03-04T08:19:04.838Z,100916.15
2023-03-04T08:21:33.911Z,100915.36
2023-03-04T08:24:08.428Z,100912.48
2023-03-04T08:26:46.072Z,100911.52
2023-03-04T08:29:23.662Z,100903.27
2023-03-04T08:31:54.350Z,100896.31
2023-03-04T08:34:25.649Z,100892.20
2023-03-04T08:36:54.784Z,100890.61
2023-03-04T08:39:23.237Z,100886.15
2023-03-04T08:41:51.844Z,100883.87
2023-03-04T08:44:20.728Z,100876.25
2023-03-04T08:46:49.120Z,100867.73
2023-03-04T08:49:17.489Z,100866.84
2023-03-04T08:51:46.606Z,100866.80
2023-03-04T08:54:14.981Z,100863.90
2023-03-04T08:56:43.591Z,100865.59
2023-03-04T08:59:12.222Z,100863.42
2023-03-04T09:01:40.694Z,100852.39
2023-03-04T09:04:09.255Z,100846.95
2023-03-04T09:06:41.712Z,100846.44
2023-03-04T09:09:10.012Z,100831.96
2023-03-04T09:11:38.762Z,100832.71
2023-03-04T09:14:07.154Z,100825.75
2023-03-04T09:16:44.236Z,100824.75
2023-03-04T09:19:16.117Z,100818.19
2023-03-04T09:21:44.600Z,100812.46
2023-03-04T09:24:13.190Z,100804.34
2023-03-04T09:26:41.472Z,100798.38
2023-03-04T09:29:10.473Z,100795.71
2023-03-04T09:31:38.921Z,100792.14
2023-03-04T09:34:07.457Z,100785.81
2023-03-04T09:36:35.753Z,100778.89
2023-03-04T09:39:04.992Z,100769.13
2023-03-04T09:42:07.968Z,100766.24
2023-03-04T09:44:49.698Z,100765.13
2023-03-04T09:47:21.863Z,100751.95
2023-03-04T09:50:11.164Z,100745.09
2023-03-04T09:53:08.070Z,100743.23
2023-03-04T09:55:42.587Z,100742.04
2023-03-04T09:58:26.844Z,100732.14
2023-03-04T10:01:17.431Z,100723.53
2023-03-04T10:03:52.320Z,100717.58
2023-03-04T10:06:23.296Z,100711.14
2023-03-04T10:09:02.945Z,100703.95
2023-03-04T10:11:43.204Z,100704.73
2023-03-04T10:14:23.859Z,100696.41
2023-03-04T10:16:53.575Z,100697.88
2023-03-04T10:19:44.980Z,100683.60
2023-03-04T10:22:41.424Z,100681.50
2023-03-04T10:25:20.680Z,100675.52
2023-03-04T10:27:53.326Z,100666.65
2023-03-04T10:30:53.122Z,100661.17
2023-03-04T10:33:25.964Z,100653.48
2023-03-04T10:36:28.971Z,100657.16
2023-03-04T10:39:08.199Z,100642.09
2023-03-04T10:41:37.287Z,100632.34
2023-03-04T10:44:08.964Z,100629.84
2023-03-04T10:46:49.219Z,100625.40
2023-03-04T10:49:25.268Z,100619.33
2023-03-04T10:52:21.799Z,100618.02
2023-03-04T10:54:54.075Z,100607.38
2023-03-04T10:57:38.116Z,100610.21
2023-03-04T11:00:18.501Z,100605.10
2023-03-04T11:02:48.204Z,100601.60
2023-03-04T11:05:24.828Z,100597.86
2023-03-04T11:08:00.195Z,100596.63
2023-03-04T11:11:16.522Z,100587.93
2023-03-04T11:14:03.971Z,100571.74
2023-03-04T11:16:34.929Z,100568.77
2023-03-04T11:19:25.167Z,100567.50
2023-03-04T11:21:55.351Z,100560.35
2023-03-04T11:24:29.847Z,100548.17
2023-03-04T11:26:58.149Z,100541.73
2023-03-04T11:29:43.621Z,100540.91
2023-03-04T11:32:22.730Z,100535.16
2023-03-04T11:35:18.752Z,100528.14
2023-03-04T11:38:02.404Z,100521.30
2023-03-04T11:40:36.434Z,100518.76
2023-03-04T11:43:16.683Z,100510.64
2023-03-04T11:46:08.092Z,100498.85
2023-03-04T11:48:52.069Z,100496.58
2023-03-04T11:51:46.866Z,100492.55
2023-03-04T11:54:24.544Z,100479.27
2023-03-04T11:57:12.772Z,100471.75
2023-03-04T12:00:09.490Z,100474.77
2023-03-04T12:03:40.586Z,100469.38
2023-03-04T12:07:00.259Z,100474.20
2023-03-04T12:09:45.630Z,100463.38
2023-03-04T12:12:17.272Z,100463.17
2023-03-04T12:14:55.816Z,100457.08
2023-03-04T12:17:38.824Z,100453.79
2023-03-04T12:20:52.236Z,100451.27
2023-03-04T12:23:33.616Z,100443.03
2023-03-04T12:26:31.065Z,100442.05
2023-03-04T12:29:02.413Z,100444.48
2023-03-04T12:31:43.397Z,100438.10
2023-03-04T12:34:33.376Z,100434.30
2023-03-04T12:37:31.225Z,100432.77
2023-03-04T12:44:45.041Z,100415.67
2023-03-04T12:47:22.725Z,100406.60
2023-03-04T12:50:10.538Z,100413.46
2023-03-04T12:52:47.846Z,100403.89
2023-03-04T12:55:19.606Z,100396.80
2023-03-04T12:57:52.278Z,100391.91
2023-03-04T13:00:44.606Z,100381.77
2023-03-04T13:03:42.676Z,100385.64
2023-03-04T13:06:43.689Z,100370.05
2023-03-04T13:09:17.098Z,100365.32
2023-03-04T13:11:52.748Z,100357.23
2023-03-04T13:14:21.147Z,100360.89
2023-03-04T13:16:54.222Z,100349.40
2023-03-04T13:19:46.853Z,100349.14
2023-03-04T13:22:42.616Z,100339.88
2023-03-04T13:25:42.572Z,100329.89
2023-03-04T13:28:11.068Z,100319.23
2023-03-04T13:30:42.320Z,100313.52
2023-03-04T13:33:16.278Z,100310.49
2023-03-04T13:35:50.438Z,100311.89
2023-03-04T13:38:30.920Z,100305.09
2023-03-04T13:41:23.220Z,100299.61
2023-03-04T13:43:58.617Z,100287.91
2023-03-04T13:46:27.845Z,100293.05
2023-03-04T13:48:56.558Z,100290.65
2023-03-04T13:51:40.606Z,100276.96
2023-03-04T13:54:17.069Z,100276.52
2023-03-04T13:57:08.997Z,100269.54
2023-03-04T13:59:46.690Z,100268.24
2023-03-04T14:02:15.982Z,100259.77
2023-03-04T14:04:54.212Z,100263.42
2023-03-04T14:07:27.601Z,100263.42
2023-03-04T14:09:57.411Z,100261.77
2023-03-04T14:12:28.763Z,100258.70
2023-03-04T14:15:00.834Z,100254.84
2023-03-04T14:17:35.330Z,100252.27
2023-03-04T14:20:05.657Z,100248.46
2023-03-04T14:22:40.220Z,100249.98
2023-03-04T14:25:14.440Z,100243.88
2023-03-04T14:27:42.739Z,100241.42
2023-03-04T14:30:39.119Z,100245.63
2023-03-04T14:33:18.444Z,100236.72
2023-03-04T14:35:53.466Z,100243.54
2023-03-04T14:38:39.640Z,100230.44
2023-03-04T14:41:21.283Z,100228.34
2023-03-04T14:44:13.136Z,100215.60
2023-03-04T14:47:06.077Z,100213.85
2023-03-04T14:49:49.882Z,100217.69
2023-03-04T14:52:39.963Z,100216.88
2023-03-04T14:55:15.125Z,100213.72
2023-03-04T14:58:01.941Z,100213.60
2023-03-04T15:00:35.773Z,100212.88
2023-03-04T15:03:21.730Z,100212.96
2023-03-04T15:06:06.928Z,100215.73
2023-03-04T15:08:41.281Z,100213.23
2023-03-04T15:11:22.786Z,100213.44
2023-03-04T15:13:54.893Z,100213.99
2023-03-04T15:16:27.097Z,100217.25
2023-03-04T15:19:00.628Z,100216.06
2023-03-04T15:21:38.145Z,100214.14
2023-03-04T15:24:10.181Z,100219.83
2023-03-04T15:26:40.895Z,100215.32
2023-03-04T15:29:17.865Z,100214.06
2023-03-04T15:31:51.874Z,100218.69
2023-03-04T15:34:20.816Z,100223.05
2023-03-04T15:36:51.146Z,100221.56
2023-03-04T15:39:24.191Z,100227.36
2023-03-04T15:42:14.214Z,100226.30
2023-03-04T15:44:42.578Z,100220.16
2023-03-04T15:47:13.971Z,100216.15
2023-03-04T15:49:44.667Z,100214.98
2023-03-04T15:52:18.593Z,100216.80
2023-03-04T15:54:49.053Z,100216.98
2023-03-04T15:57:35.507Z,100216.79
2023-03-04T16:00:04.416Z,100214.93
2023-03-04T16:02:39.938Z,100216.87
2023-03-04T16:05:09.635Z,100221.85
2023-03-04T16:07:40.725Z,100223.43
2023-03-04T16:10:18.719Z,100231.92
2023-03-04T16:12:47.047Z,100229.50
2023-03-04T16:15:21.945Z,100231.00
2023-03-04T16:17:51.140Z,100233.16
2023-03-04T16:20:22.899Z,100234.85
2023-03-04T16:22:55.187Z,100240.36
2023-03-04T16:25:25.164Z,100239.40
2023-03-04T16:28:03.000Z,100238.59
2023-03-04T16:30:32.240Z,100245.23
2023-03-04T16:33:00.578Z,100243.57
2023-03-04T16:35:29.902Z,100243.80
2023-03-04T16:37:58.885Z,100244.06
2023-03-04T16:40:30.025Z,100245.31
2023-03-04T16:42:58.421Z,100245.02
2023-03-04T16:45:31.852Z,100251.16
2023-03-04T16:48:00.304Z,100252.31
2023-03-04T16:50:30.102Z,100248.33
2023-03-04T16:52:58.395Z,100255.55
2023-03-04T16:55:29.230Z,100251.92
2023-03-04T16:57:58.443Z,100251.04
2023-03-04T17:00:28.910Z,100250.27
2023-03-04T17:03:00.371Z,100255.23
2023-03-04T17:05:31.897Z,100258.01
2023-03-04T17:08:00.163Z,100259.27
2023-03-04T17:10:28.654Z,100257.70
2023-03-04T17:12:57.179Z,100257.79
2023-03-04T17:15:25.522Z,100260.19
2023-03-04T17:17:54.116Z,100265.46
2023-03-04T17:20:23.065Z,100261.66
2023-03-04T17:22:51.394Z,100267.67
2023-03-04T17:25:19.796Z,100264.60
2023-03-04T17:27:48.051Z,100268.74
2023-03-04T17:30:17.090Z,100269.32
2023-03-04T17:32:45.546Z,100268.21
2023-03-04T17:35:14.228Z,100261.41
2023-03-04T17:37:42.717Z,100261.80
2023-03-04T17:40:15.314Z,100262.02
2023-03-04T17:42:44.006Z,100264.55
2023-03-04T17:45:12.475Z,100265.59
2023-03-04T17:47:40.968Z,100265.02
2023-03-04T17:50:10.738Z,100270.58
2023-03-04T17:52:54.221Z,100272.20
2023-03-04T17:55:22.904Z,100273.80
2023-03-04T17:57:53.253Z,100274.69
2023-03-04T18:00:22.308Z,100276.39
2023-03-04T18:03:20.265Z,100274.84
2023-03-04T18:05:55.600Z,100282.86
2023-03-04T18:08:28.521Z,100281.22
2023-03-04T18:10:59.565Z,100284.35
2023-03-04T18:13:28.049Z,100285.68
2023-03-04T18:15:56.834Z,100282.77
2023-03-04T18:18:25.328Z,100284.23
2023-03-04T18:21:00.880Z,100286.71
2023-03-04T18:23:29.571Z,100286.06
2023-03-04T18:25:58.174Z,100287.32
2023-03-04T18:28:26.552Z,100287.86
2023-03-04T18:30:58.413Z,100287.80
2023-03-04T18:33:28.228Z,100287.94
2023-03-04T18:36:01.437Z,100289.71
2023-03-04T18:38:31.453Z,100290.06
2023-03-04T18:41:08.829Z,100288.03
2023-03-04T18:43:37.777Z,100288.56
2023-03-04T18:46:17.166Z,100290.80
2023-03-04T18:48:49.027Z,100295.31
2023-03-04T18:51:17.430Z,100293.27
2023-03-04T18:53:46.189Z,100297.83
2023-03-04T18:56:37.804Z,100299.14
2023-03-04T18:59:17.872Z,100301.42
2023-03-04T19:01:47.433Z,100298.61
2023-03-04T19:04:18.362Z,100300.80
2023-03-04T19:06:47.436Z,100304.34
2023-03-04T19:09:16.130Z,100302.52
2023-03-04T19:11:44.295Z,100309.27
2023-03-04T19:14:13.027Z,100315.04
2023-03-04T19:16:41.540Z,100320.70
2023-03-04T19:19:09.810Z,100325.68
2023-03-04T19:21:39.061Z,100326.98
2023-03-04T19:24:08.082Z,100329.64
2023-03-04T19:26:36.448Z,100330.20
2023-03-04T19:29:05.958Z,100330.99
2023-03-04T19:31:34.540Z,100332.67
2023-03-04T19:34:02.828Z,100331.28
2023-03-04T19:36:32.134Z,100337.79
2023-03-04T19:39:01.344Z,100343.30
2023-03-04T19:41:30.233Z,100343.13
2023-03-04T19:43:58.930Z,100343.13
2023-03-04T19:46:28.302Z,100343.90
2023-03-04T19:48:56.816Z,100347.14
2023-03-04T19:51:29.098Z,100345.90
2023-03-04T19:53:57.367Z,100354.38
2023-03-04T19:56:25.853Z,100360.83
2023-03-04T19:58:56.292Z,100358.31
2023-03-04T20:01:28.522Z,100357.87
2023-03-04T20:04:04.638Z,100361.45
2023-03-04T20:06:36.686Z,100365.23
2023-03-04T20:09:05.670Z,100366.64
2023-03-04T20:11:39.211Z,100366.73
2023-03-04T20:14:12.912Z,100363.00
2023-03-04T20:16:41.379Z,100361.77
2023-03-04T20:19:09.964Z,100361.29
2023-03-04T20:21:39.076Z,100356.20
2023-03-04T20:24:07.553Z,100358.98
2023-03-04T20:26:35.939Z,100361.12
2023-03-04T20:29:04.225Z,100361.77
2023-03-04T20:31:38.543Z,100364.27
2023-03-04T20:34:08.984Z,100374.78
2023-03-04T20:36:38.782Z,100400.67
2023-03-04T20:39:25.787Z,100401.36
2023-03-04T20:41:59.824Z,100408.95
2023-03-04T20:44:28.706Z,100410.60
2023-03-04T20:46:58.072Z,100421.27
2023-03-04T20:49:59.957Z,100423.23
2023-03-04T20:52:39.202Z,100431.75
2023-03-04T20:55:29.029Z,100428.54
2023-03-04T20:58:16.483Z,100426.71
2023-03-04T21:00:45.080Z,100428.46
2023-03-04T21:03:13.453Z,100436.86
2023-03-04T21:05:41.839Z,100440.73
2023-03-04T21:08:10.324Z,100454.16
2023-03-04T21:10:38.525Z,100463.02
2023-03-04T21:13:11.402Z,100477.24
2023-03-04T21:15:47.168Z,100479.96
2023-03-04T21:18:16.255Z,100489.20
2023-03-04T21:20:45.450Z,100494.66
2023-03-04T21:23:14.464Z,100495.00
2023-03-04T21:25:42.739Z,100498.42
2023-03-04T21:28:11.219Z,100497.10
2023-03-04T21:30:39.604Z,100501.25
2023-03-04T21:33:17.208Z,100513.10
2023-03-04T21:35:48.301Z,100511.02
2023-03-04T21:38:16.733Z,100518.37
2023-03-04T21:40:45.426Z,100524.87
2023-03-04T21:43:13.918Z,100531.06
2023-03-04T21:45:42.305Z,100538.05
2023-03-04T21:48:10.797Z,100541.67
2023-03-04T21:50:39.500Z,100550.09
2023-03-04T21:53:07.682Z,100549.73
2023-03-04T21:55:36.576Z,100556.48
2023-03-04T21:58:05.305Z,100562.05
2023-03-04T22:00:33.575Z,100561.81
2023-03-04T22:03:02.040Z,100564.05
2023-03-04T22:05:30.732Z,100566.38
2023-03-04T22:07:59.216Z,100572.77
2023-03-04T22:10:28.730Z,100574.59
2023-03-04T22:12:57.116Z,100583.66
2023-03-04T22:15:25.294Z,100584.05
2023-03-04T22:17:53.853Z,100589.12
2023-03-04T22:20:25.235Z,100593.18
2023-03-04T22:22:53.417Z,100594.58
2023-03-04T22:25:21.808Z,100599.74
2023-03-04T22:27:50.289Z,100592.27
2023-03-04T22:30:19.103Z,100596.98
2023-03-04T22:32:48.775Z,100600.36
2023-03-04T22:35:18.528Z,100600.76
2023-03-04T22:37:46.808Z,100600.40
2023-03-04T22:40:16.524Z,100601.14
2023-03-04T22:42:46.808Z,100605.35
2023-03-04T22:45:17.938Z,100607.43
2023-03-04T22:47:52.418Z,100607.63
2023-03-04T22:50:22.313Z,100612.55
2023-03-04T22:52:50.615Z,100613.73
2023-03-04T22:55:20.822Z,100614.35
2023-03-04T22:57:49.856Z,100616.91
2023-03-04T23:00:28.251Z,100618.05
2023-03-04T23:02:57.393Z,100620.03
2023-03-04T23:05:26.032Z,100620.77
2023-03-04T23:07:54.624Z,100623.28
2023-03-04T23:10:25.258Z,100621.16
2023-03-04T23:12:54.668Z,100620.45
2023-03-04T23:15:24.604Z,100628.14
2023-03-04T23:17:53.074Z,100631.09
2023-03-04T23:20:22.078Z,100631.65
2023-03-04T23:22:50.675Z,100633.48
2023-03-04T23:25:18.864Z,100634.46
2023-03-04T23:27:47.432Z,100635.58
2023-03-04T23:30:17.353Z,100639.30
2023-03-04T23:32:45.546Z,100643.46
2023-03-04T23:35:13.910Z,100644.83
2023-03-04T23:37:42.503Z,100649.02
2023-03-04T23:40:12.014Z,100650.44
2023-03-04T23:42:40.252Z,100651.94
2023-03-04T23:45:09.476Z,100652.34
2023-03-04T23:47:38.090Z,100652.69
2023-03-04T23:50:08.863Z,100654.30
2023-03-04T23:52:37.214Z,100655.70
2023-03-04T23:55:06.687Z,100655.39
2023-03-04T23:57:35.006Z,100657.66
